Archiv-/Tagesdaten

--Timestamp---	Temp	Chill	HIndex	Humid	Dewpt	 Wind 	HiWind	WindDir	Rain 	Barom	Solar	 ET  	 UV 
--------------	----	-----	------	-----	-----	------	------	-------	-----	-----	-----	-----	----
20100219 00:00	0.4	0.4	0.4	92	-0.8	3	6	158	0.0	1002.4	0	0.000	0.0
20100219 00:05	0.4	0.4	0.4	92	-0.8	3	6	158	0.0	1002.3	0	0.000	0.0
20100219 00:10	0.3	0.3	0.3	92	-0.8	3	8	158	0.0	1002.3	0	0.000	0.0
20100219 00:15	0.3	0.3	0.3	92	-0.8	3	6	158	0.0	1002.4	0	0.000	0.0
20100219 00:20	0.3	0.3	0.3	92	-0.8	2	5	158	0.0	1002.5	0	0.000	0.0
20100219 00:25	0.3	0.3	0.3	92	-0.9	0	0	-100000	0.0	1002.4	0	0.000	0.0
20100219 00:30	0.2	0.2	0.2	92	-0.9	3	6	158	0.0	1002.3	0	0.000	0.0
20100219 00:35	0.2	0.2	0.2	91	-1.1	5	8	158	0.0	1002.3	0	0.000	0.0
20100219 00:40	0.1	0.1	0.1	92	-1.1	3	6	158	0.0	1002.3	0	0.000	0.0
20100219 00:45	0.0	0.0	0.0	92	-1.1	5	8	158	0.0	1002.2	0	0.000	0.0
20100219 00:50	-0.1	-0.1	-0.1	91	-1.4	5	8	158	0.0	1002.2	0	0.000	0.0
20100219 00:55	-0.2	-0.2	-0.2	91	-1.5	5	6	158	0.0	1002.2	0	0.000	0.0
20100219 01:00	-0.2	-0.2	-0.2	92	-1.4	3	6	158	0.0	1002.2	0	0.000	0.0
20100219 01:05	-0.3	-0.3	-0.3	92	-1.4	3	5	158	0.0	1002.0	0	0.000	0.0
20100219 01:10	-0.3	-0.3	-0.3	92	-1.4	3	6	158	0.0	1002.0	0	0.000	0.0
20100219 01:15	-0.2	-0.2	-0.2	92	-1.4	5	6	158	0.0	1001.9	0	0.000	0.0
20100219 01:20	-0.2	-0.2	-0.2	92	-1.3	5	8	158	0.0	1001.8	0	0.000	0.0
20100219 01:25	-0.2	-0.2	-0.2	92	-1.3	5	8	158	0.0	1001.7	0	0.000	0.0
20100219 01:30	-0.1	-0.1	-0.1	92	-1.2	3	8	158	0.0	1001.5	0	0.000	0.0
20100219 01:35	0.1	0.1	0.1	93	-0.9	5	10	158	0.0	1001.4	0	0.000	0.0
20100219 01:40	0.4	0.4	0.4	93	-0.6	5	11	158	0.0	1001.4	0	0.000	0.0
20100219 01:45	0.6	0.6	0.6	93	-0.4	3	6	135	0.0	1001.3	0	0.000	0.0
20100219 01:50	0.6	0.6	0.6	93	-0.4	3	6	135	0.0	1001.3	0	0.000	0.0
20100219 01:55	0.6	0.6	0.6	93	-0.4	5	11	158	0.0	1001.3	0	0.000	0.0
20100219 02:00	0.6	-1.5	0.6	93	-0.4	6	11	158	0.0	1001.1	0	0.000	0.0
20100219 02:05	0.6	-1.5	0.6	93	-0.4	6	10	158	0.0	1001.0	0	0.000	0.0
20100219 02:10	0.6	-1.5	0.6	92	-0.6	6	10	158	0.0	1000.8	0	0.000	0.0
20100219 02:15	0.5	0.5	0.5	92	-0.6	5	10	158	0.0	1000.8	0	0.000	0.0
20100219 02:20	0.4	0.4	0.4	92	-0.7	5	10	158	0.0	1000.6	0	0.000	0.0
20100219 02:25	0.3	-1.9	0.3	92	-0.9	6	16	135	0.0	1000.5	0	0.000	0.0
20100219 02:30	0.2	-1.9	0.2	92	-0.9	6	14	158	0.0	1000.5	0	0.000	0.0
20100219 02:35	0.3	-2.4	0.3	93	-0.7	8	11	158	0.0	1000.5	0	0.000	0.0
20100219 02:40	0.3	-2.4	0.3	93	-0.7	8	14	158	0.0	1000.3	0	0.000	0.0
20100219 02:45	0.2	-2.0	0.2	92	-1.0	6	8	158	0.0	1000.2	0	0.000	0.0
20100219 02:50	0.1	-2.1	0.1	92	-1.1	6	10	158	0.0	1000.2	0	0.000	0.0
20100219 02:55	0.0	-2.2	0.0	92	-1.1	6	11	158	0.0	1000.1	0	0.000	0.0
20100219 03:00	0.0	-2.2	0.0	93	-1.0	6	11	158	0.0	1000.1	0	0.000	0.0
20100219 03:05	0.1	-2.1	0.1	93	-0.9	6	8	158	0.0	999.8	0	0.000	0.0
20100219 03:10	0.1	-2.1	0.1	93	-0.9	6	11	158	0.0	999.7	0	0.000	0.0
20100219 03:15	0.2	0.2	0.2	93	-0.8	5	8	158	0.0	999.7	0	0.000	0.0
20100219 03:20	0.2	0.2	0.2	92	-1.0	3	8	158	0.0	999.7	0	0.000	0.0
20100219 03:25	0.1	0.1	0.1	93	-0.9	0	2	158	0.0	999.6	0	0.000	0.0
20100219 03:30	0.0	0.0	0.0	93	-1.0	0	0	-100000	0.0	999.5	0	0.000	0.0
20100219 03:35	-0.2	-0.2	-0.2	92	-1.3	0	0	-100000	0.0	999.5	0	0.000	0.0
20100219 03:40	-0.3	-0.3	-0.3	92	-1.4	0	0	-100000	0.0	999.4	0	0.000	0.0
20100219 03:45	-0.4	-0.4	-0.4	92	-1.6	0	0	-100000	0.0	999.2	0	0.000	0.0
20100219 03:50	-0.6	-0.6	-0.6	92	-1.7	0	0	-100000	0.0	999.1	0	0.000	0.0
20100219 03:55	-0.6	-0.6	-0.6	92	-1.7	2	3	158	0.0	999.1	0	0.000	0.0
20100219 04:00	-0.6	-0.6	-0.6	92	-1.7	0	0	-100000	0.0	999.1	0	0.000	0.0
20100219 04:05	-0.7	-0.7	-0.7	92	-1.8	0	0	-100000	0.0	999.2	0	0.000	0.0
20100219 04:10	-0.7	-0.7	-0.7	92	-1.8	0	0	-100000	0.0	999.1	0	0.000	0.0
20100219 04:15	-0.7	-0.7	-0.7	92	-1.9	0	0	-100000	0.0	999.0	0	0.000	0.0
20100219 04:20	-0.9	-0.9	-0.9	92	-2.0	0	3	158	0.0	999.1	0	0.000	0.0
20100219 04:25	-1.1	-1.1	-1.1	92	-2.2	0	3	158	0.0	999.0	0	0.000	0.0
20100219 04:30	-1.2	-1.2	-1.2	92	-2.3	0	0	-100000	0.0	999.0	0	0.000	0.0
20100219 04:35	-1.2	-1.2	-1.2	92	-2.3	0	0	-100000	0.0	998.8	0	0.000	0.0
20100219 04:40	-1.3	-1.3	-1.3	92	-2.4	0	0	-100000	0.0	998.7	0	0.000	0.0
20100219 04:45	-1.3	-1.3	-1.3	92	-2.4	0	0	-100000	0.0	998.5	0	0.000	0.0
20100219 04:50	-1.3	-1.3	-1.3	92	-2.5	0	2	158	0.0	998.2	0	0.000	0.0
20100219 04:55	-1.5	-1.5	-1.5	91	-2.8	0	2	158	0.0	998.1	0	0.000	0.0
20100219 05:00	-1.6	-1.6	-1.6	91	-2.9	0	3	158	0.0	998.1	0	0.000	0.0
20100219 05:05	-1.7	-1.7	-1.7	92	-2.8	2	3	158	0.0	998.4	0	0.000	0.0
20100219 05:10	-1.8	-1.8	-1.8	92	-2.9	0	3	158	0.0	998.4	0	0.000	0.0
20100219 05:15	-1.9	-1.9	-1.9	92	-3.1	0	3	158	0.0	998.2	0	0.000	0.0
20100219 05:20	-2.0	-2.0	-2.0	92	-3.1	3	5	158	0.0	998.3	0	0.000	0.0
20100219 05:25	-1.9	-1.9	-1.9	92	-3.1	3	3	158	0.0	998.1	0	0.000	0.0
20100219 05:30	-2.0	-2.0	-2.0	92	-3.1	0	2	158	0.0	998.2	0	0.000	0.0
20100219 05:35	-2.2	-2.2	-2.2	92	-3.3	0	0	-100000	0.0	998.0	0	0.000	0.0
20100219 05:40	-2.3	-2.3	-2.3	92	-3.5	0	0	-100000	0.0	997.9	0	0.000	0.0
20100219 05:45	-2.6	-2.6	-2.6	92	-3.7	0	3	158	0.0	997.7	0	0.000	0.0
20100219 05:50	-2.7	-2.7	-2.7	92	-3.8	0	0	-100000	0.0	997.6	0	0.000	0.0
20100219 05:55	-2.8	-2.8	-2.8	92	-3.9	0	0	-100000	0.0	997.5	0	0.000	0.0
20100219 06:00	-2.9	-2.9	-2.9	92	-4.1	2	6	158	0.0	997.3	0	0.000	0.0
20100219 06:05	-2.9	-2.9	-2.9	92	-4.1	3	5	158	0.0	997.4	0	0.000	0.0
20100219 06:10	-3.0	-3.0	-3.0	92	-4.1	3	5	158	0.0	997.2	0	0.000	0.0
20100219 06:15	-3.1	-3.1	-3.1	92	-4.2	2	3	158	0.0	997.0	0	0.000	0.0
20100219 06:20	-3.1	-3.1	-3.1	92	-4.2	2	3	158	0.0	997.1	0	0.000	0.0
20100219 06:25	-3.2	-3.2	-3.2	92	-4.3	2	3	158	0.0	996.9	0	0.000	0.0
20100219 06:30	-3.1	-3.1	-3.1	92	-4.2	2	5	158	0.0	996.8	0	0.000	0.0
20100219 06:35	-3.1	-3.1	-3.1	92	-4.2	0	5	158	0.0	996.4	0	0.000	0.0
20100219 06:40	-2.9	-2.9	-2.9	93	-3.9	0	2	158	0.0	996.3	0	0.000	0.0
20100219 06:45	-2.9	-2.9	-2.9	93	-3.9	0	2	158	0.0	996.2	0	0.000	0.0
20100219 06:50	-2.8	-2.8	-2.8	93	-3.8	2	5	158	0.0	996.0	0	0.000	0.0
20100219 06:55	-2.8	-2.8	-2.8	93	-3.7	2	3	158	0.0	995.9	0	0.000	0.0
20100219 07:00	-2.8	-2.8	-2.8	93	-3.7	2	3	158	0.0	995.8	0	0.000	0.0
20100219 07:05	-2.8	-2.8	-2.8	93	-3.8	2	5	158	0.0	995.8	0	0.000	0.0
20100219 07:10	-2.9	-2.9	-2.9	93	-3.9	3	5	158	0.0	995.6	0	0.000	0.0
20100219 07:15	-2.9	-2.9	-2.9	93	-3.9	0	0	-100000	0.0	995.5	0	0.000	0.0
20100219 07:20	-2.9	-2.9	-2.9	93	-3.9	0	2	158	0.0	995.4	0	0.000	0.0
20100219 07:25	-2.9	-2.9	-2.9	93	-3.9	0	2	158	0.0	995.4	3	0.000	0.0
20100219 07:30	-2.9	-2.9	-2.9	93	-3.9	2	5	158	0.0	995.4	7	0.000	0.0
20100219 07:35	-2.9	-2.9	-2.9	93	-3.9	2	5	158	0.0	995.3	9	0.000	0.0
20100219 07:40	-2.9	-2.9	-2.9	93	-3.9	3	6	158	0.0	995.1	12	0.000	0.0
20100219 07:45	-2.8	-2.8	-2.8	93	-3.8	2	3	158	0.0	995.0	16	0.000	0.0
20100219 07:50	-2.8	-2.8	-2.8	93	-3.7	0	3	158	0.0	995.0	19	0.000	0.0
20100219 07:55	-2.7	-2.7	-2.7	93	-3.7	3	6	158	0.0	994.9	21	0.000	0.0
20100219 08:00	-2.7	-2.7	-2.7	93	-3.6	2	3	158	0.0	995.0	23	0.000	0.0
20100219 08:05	-2.7	-2.7	-2.7	93	-3.6	5	6	158	0.0	995.0	23	0.000	0.0
20100219 08:10	-2.7	-2.7	-2.7	93	-3.7	3	5	158	0.0	995.0	24	0.000	0.0
20100219 08:15	-2.7	-2.7	-2.7	93	-3.7	2	5	158	0.0	994.9	27	0.000	0.0
20100219 08:20	-2.7	-2.7	-2.7	93	-3.6	2	6	158	0.0	994.8	28	0.000	0.0
20100219 08:25	-2.6	-2.6	-2.6	93	-3.6	5	6	158	0.0	994.7	26	0.000	0.0
20100219 08:30	-2.6	-2.6	-2.6	93	-3.6	2	5	158	0.0	994.6	28	0.000	0.0
20100219 08:35	-2.6	-2.6	-2.6	93	-3.5	3	6	158	0.0	994.6	31	0.000	0.0
20100219 08:40	-2.5	-2.5	-2.5	93	-3.5	3	6	158	0.0	994.5	35	0.000	0.0
20100219 08:45	-2.4	-5.0	-2.4	93	-3.4	6	8	158	0.0	994.4	44	0.000	0.0
20100219 08:50	-2.4	-2.4	-2.4	93	-3.4	5	8	158	0.0	994.2	59	0.000	0.0
20100219 08:55	-2.3	-4.9	-2.3	93	-3.3	6	10	68	0.0	994.1	65	0.000	0.0
20100219 09:00	-2.3	-2.3	-2.3	93	-3.3	3	8	45	0.0	994.0	69	0.025	0.0
20100219 09:05	-2.3	-2.3	-2.3	93	-3.3	5	8	45	0.0	993.9	77	0.000	0.0
20100219 09:10	-2.2	-2.2	-2.2	93	-3.2	5	8	45	0.0	993.9	76	0.000	0.0
20100219 09:15	-2.1	-2.1	-2.1	93	-3.1	3	6	0	0.0	994.0	72	0.000	0.0
20100219 09:20	-2.0	-2.0	-2.0	93	-3.0	5	6	22	0.0	994.2	68	0.000	0.0
20100219 09:25	-2.0	-4.5	-2.0	93	-3.0	6	8	22	0.0	994.3	64	0.000	0.0
20100219 09:30	-1.9	-1.9	-1.9	93	-2.9	5	8	22	0.0	994.1	60	0.000	0.0
20100219 09:35	-1.8	-1.8	-1.8	93	-2.8	3	6	22	0.0	994.1	57	0.000	0.0
20100219 09:40	-1.8	-1.8	-1.8	94	-2.6	3	6	22	0.0	994.0	64	0.000	0.0
20100219 09:45	-1.8	-1.8	-1.8	93	-2.8	3	6	22	0.0	994.1	67	0.000	0.0
20100219 09:50	-1.7	-1.7	-1.7	93	-2.7	3	6	22	0.0	994.0	73	0.000	0.0
20100219 09:55	-1.7	-1.7	-1.7	93	-2.6	5	8	22	0.0	993.8	81	0.000	0.0
20100219 10:00	-1.7	-1.7	-1.7	93	-2.6	5	6	22	0.0	993.7	80	0.025	0.0
20100219 10:05	-1.6	-1.6	-1.6	93	-2.6	3	6	22	0.0	993.8	83	0.000	0.0
20100219 10:10	-1.6	-1.6	-1.6	93	-2.6	5	6	22	0.0	993.9	82	0.000	0.0
20100219 10:15	-1.7	-1.7	-1.7	93	-2.6	5	6	22	0.0	994.0	80	0.000	0.0
20100219 10:20	-1.7	-1.7	-1.7	93	-2.6	5	6	22	0.0	993.9	100	0.000	0.5
20100219 10:25	-1.6	-1.6	-1.6	93	-2.6	3	6	22	0.0	993.9	109	0.000	0.6
20100219 10:30	-1.6	-1.6	-1.6	93	-2.5	5	8	22	0.0	993.7	126	0.000	0.7
20100219 10:35	-1.5	-1.5	-1.5	93	-2.5	5	8	22	0.0	993.7	141	0.000	0.7
20100219 10:40	-1.4	-1.4	-1.4	93	-2.4	5	8	22	0.0	993.7	146	0.000	0.8
20100219 10:45	-1.4	-1.4	-1.4	93	-2.4	5	8	22	0.0	993.7	143	0.000	0.8
20100219 10:50	-1.3	-3.7	-1.3	93	-2.3	6	10	22	0.0	993.4	143	0.000	0.8
20100219 10:55	-1.3	-3.7	-1.3	93	-2.3	6	11	45	0.0	993.3	156	0.000	0.9
20100219 11:00	-1.3	-1.3	-1.3	93	-2.3	5	10	45	0.0	993.4	163	0.051	0.9
20100219 11:05	-1.3	-1.3	-1.3	93	-2.3	5	8	22	0.0	993.5	172	0.000	1.0
20100219 11:10	-1.3	-1.3	-1.3	93	-2.3	5	8	22	0.0	993.3	197	0.000	1.1
20100219 11:15	-1.2	-1.2	-1.2	93	-2.2	5	6	45	0.0	993.3	210	0.000	1.2
20100219 11:20	-1.1	-3.5	-1.1	93	-2.1	6	10	45	0.0	993.3	222	0.000	1.3
20100219 11:25	-1.0	-1.0	-1.0	93	-2.0	5	8	45	0.0	993.2	216	0.000	1.2
20100219 11:30	-0.8	-0.8	-0.8	93	-1.8	5	11	68	0.0	993.0	216	0.000	1.3
20100219 11:35	-0.8	-3.7	-0.8	93	-1.8	8	13	22	0.0	992.9	234	0.000	1.3
20100219 11:40	-0.8	-3.7	-0.8	93	-1.8	8	11	68	0.0	993.1	267	0.000	1.5
20100219 11:45	-0.8	-3.6	-0.8	93	-1.8	8	11	68	0.0	992.8	240	0.000	1.4
20100219 11:50	-0.8	-3.1	-0.8	93	-1.8	6	10	68	0.0	992.6	225	0.000	1.3
20100219 11:55	-0.8	-3.1	-0.8	93	-1.8	6	10	68	0.0	992.6	200	0.000	1.2
20100219 12:00	-0.8	-3.6	-0.8	93	-1.8	8	11	68	0.0	992.4	186	0.076	1.2
20100219 12:05	-0.8	-3.1	-0.8	93	-1.8	6	11	68	0.0	992.5	181	0.000	1.2
20100219 12:10	-0.8	-3.1	-0.8	93	-1.8	6	11	68	0.0	992.4	179	0.000	1.1
20100219 12:15	-0.8	-3.1	-0.8	93	-1.8	6	11	68	0.0	992.4	174	0.000	1.1
20100219 12:20	-0.7	-3.6	-0.7	93	-1.7	8	14	45	0.0	992.0	177	0.000	1.1
20100219 12:25	-0.7	-3.5	-0.7	93	-1.7	8	11	68	0.0	991.9	193	0.000	1.2
20100219 12:30	-0.6	-0.6	-0.6	93	-1.5	5	8	68	0.0	991.8	206	0.000	1.2
20100219 12:35	-0.4	-3.3	-0.4	93	-1.4	8	13	68	0.0	991.5	217	0.000	1.3
20100219 12:40	-0.4	-3.3	-0.4	93	-1.4	8	13	68	0.0	991.3	214	0.000	1.3
20100219 12:45	-0.4	-0.4	-0.4	93	-1.4	5	10	68	0.0	991.1	221	0.000	1.3
20100219 12:50	-0.3	-0.3	-0.3	93	-1.3	5	10	68	0.0	991.0	216	0.000	1.3
20100219 12:55	-0.2	-0.2	-0.2	92	-1.4	3	8	135	0.0	991.2	195	0.000	1.2
20100219 13:00	-0.2	-0.2	-0.2	92	-1.3	3	6	68	0.0	991.1	196	0.076	1.2
20100219 13:05	-0.1	-0.1	-0.1	92	-1.2	3	5	68	0.0	991.1	201	0.000	1.2
20100219 13:10	0.0	0.0	0.0	92	-1.1	3	6	112	0.0	991.2	155	0.000	1.0
20100219 13:15	0.0	0.0	0.0	92	-1.1	3	6	68	0.0	991.1	132	0.000	0.8
20100219 13:20	0.0	0.0	0.0	92	-1.1	3	6	68	0.0	991.1	136	0.000	0.8
20100219 13:25	-0.1	-0.1	-0.1	92	-1.2	5	8	68	0.0	991.1	134	0.000	0.8
20100219 13:30	-0.1	-0.1	-0.1	92	-1.2	5	8	68	0.0	991.0	125	0.000	0.7
20100219 13:35	-0.1	-2.2	-0.1	92	-1.2	6	8	68	0.0	991.0	120	0.000	0.7
20100219 13:40	0.0	0.0	0.0	92	-1.1	5	8	68	0.0	991.0	115	0.000	0.6
20100219 13:45	-0.1	-0.1	-0.1	92	-1.2	5	10	68	0.0	990.9	102	0.000	0.6
20100219 13:50	-0.1	-0.1	-0.1	91	-1.3	5	8	68	0.0	990.9	93	0.000	0.5
20100219 13:55	-0.1	-0.1	-0.1	92	-1.2	5	8	68	0.0	990.7	88	0.000	0.5
20100219 14:00	-0.1	-0.1	-0.1	92	-1.2	5	6	45	0.0	990.6	94	0.051	0.5
20100219 14:05	-0.1	-0.1	-0.1	92	-1.2	3	8	45	0.0	990.5	100	0.000	0.5
20100219 14:10	0.0	0.0	0.0	92	-1.1	5	10	45	0.0	990.4	107	0.000	0.5
20100219 14:15	0.1	0.1	0.1	92	-1.1	2	5	68	0.0	990.5	107	0.000	0.5
20100219 14:20	0.1	0.1	0.1	92	-1.0	2	5	68	0.0	990.5	103	0.000	0.5
20100219 14:25	0.1	0.1	0.1	92	-1.0	5	8	68	0.0	990.3	104	0.000	0.5
20100219 14:30	0.2	-2.0	0.2	92	-1.0	6	10	22	0.0	990.2	88	0.000	0.1
20100219 14:35	0.1	-2.1	0.1	92	-1.0	6	13	45	0.0	990.1	80	0.000	0.0
20100219 14:40	0.1	0.1	0.1	92	-1.0	5	8	68	0.0	990.4	72	0.000	0.0
20100219 14:45	0.1	0.1	0.1	92	-1.0	3	6	90	0.0	990.6	61	0.000	0.0
20100219 14:50	0.2	0.2	0.2	92	-1.0	2	5	90	0.0	990.6	56	0.000	0.0
20100219 14:55	0.2	0.2	0.2	92	-0.9	2	5	90	0.0	990.6	53	0.000	0.0
20100219 15:00	0.2	0.2	0.2	92	-0.9	0	2	90	0.0	990.7	51	0.025	0.0
20100219 15:05	0.2	0.2	0.2	92	-0.9	2	3	90	0.0	990.8	53	0.000	0.0
20100219 15:10	0.2	0.2	0.2	92	-0.9	0	3	90	0.0	990.8	51	0.000	0.0
20100219 15:15	0.2	0.2	0.2	92	-0.9	0	3	90	0.0	990.7	52	0.000	0.0
20100219 15:20	0.2	0.2	0.2	92	-0.9	2	5	90	0.0	990.5	58	0.000	0.0
20100219 15:25	0.3	0.3	0.3	92	-0.9	2	5	90	0.0	990.1	69	0.000	0.0
20100219 15:30	0.3	0.3	0.3	92	-0.8	2	3	90	0.0	990.2	67	0.000	0.0
20100219 15:35	0.4	0.4	0.4	92	-0.8	0	3	90	0.0	990.3	61	0.000	0.0
20100219 15:40	0.4	0.4	0.4	92	-0.7	2	5	90	0.0	990.3	64	0.000	0.0
20100219 15:45	0.5	0.5	0.5	92	-0.6	3	6	90	0.0	990.3	69	0.000	0.0
20100219 15:50	0.6	0.6	0.6	92	-0.6	5	6	0	0.0	990.3	68	0.000	0.0
20100219 15:55	0.6	0.6	0.6	92	-0.5	5	8	338	0.0	990.3	67	0.000	0.0
20100219 16:00	0.6	-1.5	0.6	92	-0.6	6	10	338	0.0	990.3	65	0.025	0.0
20100219 16:05	0.6	0.6	0.6	92	-0.5	5	8	338	0.0	990.5	72	0.000	0.0
20100219 16:10	0.7	0.7	0.7	92	-0.5	5	10	315	0.0	990.5	77	0.000	0.0
20100219 16:15	0.7	-2.0	0.7	92	-0.5	8	11	292	0.0	990.5	69	0.000	0.0
20100219 16:20	0.7	-1.4	0.7	91	-0.6	6	10	292	0.0	990.6	50	0.000	0.0
20100219 16:25	0.6	-1.5	0.6	91	-0.7	6	11	292	0.0	990.6	39	0.000	0.0
20100219 16:30	0.6	0.6	0.6	91	-0.7	5	10	292	0.0	990.6	34	0.000	0.0
20100219 16:35	0.6	-1.5	0.6	91	-0.7	6	10	292	0.0	990.6	30	0.000	0.0
20100219 16:40	0.4	-1.7	0.4	91	-0.9	6	10	292	0.0	990.7	26	0.000	0.0
20100219 16:45	0.4	0.4	0.4	91	-0.9	5	10	292	0.0	990.8	20	0.000	0.0
20100219 16:50	0.4	-1.7	0.4	91	-0.9	6	11	292	0.0	990.9	18	0.000	0.0
20100219 16:55	0.4	-2.3	0.4	92	-0.8	8	13	270	0.0	990.9	15	0.000	0.0
20100219 17:00	0.3	-2.3	0.3	92	-0.8	8	14	270	0.0	991.0	12	0.025	0.0
20100219 17:05	0.3	-2.3	0.3	92	-0.8	8	14	270	0.0	991.2	11	0.000	0.0
20100219 17:10	0.3	-1.8	0.3	92	-0.8	6	11	292	0.0	991.3	9	0.000	0.0
20100219 17:15	0.3	-1.8	0.3	92	-0.8	6	11	270	0.0	991.4	8	0.000	0.0
20100219 17:20	0.3	-2.3	0.3	92	-0.8	8	14	248	0.0	991.5	5	0.000	0.0
20100219 17:25	0.3	-2.3	0.3	92	-0.8	8	13	270	0.0	991.5	3	0.000	0.0
20100219 17:30	0.3	-1.8	0.3	92	-0.8	6	11	270	0.0	991.6	0	0.000	0.0
20100219 17:35	0.3	-2.3	0.3	92	-0.8	8	11	292	0.0	991.6	0	0.000	0.0
20100219 17:40	0.3	-1.8	0.3	92	-0.8	6	10	292	0.0	991.8	0	0.000	0.0
20100219 17:45	0.3	-1.8	0.3	92	-0.8	6	10	292	0.0	991.9	0	0.000	0.0
20100219 17:50	0.4	0.4	0.4	92	-0.8	5	11	248	0.0	992.0	0	0.000	0.0
20100219 17:55	0.4	-1.7	0.4	92	-0.8	6	10	248	0.0	992.0	0	0.000	0.0
20100219 18:00	0.4	-1.7	0.4	92	-0.7	6	11	270	0.0	992.2	0	0.000	0.0
20100219 18:05	0.4	-1.7	0.4	92	-0.7	6	11	270	0.0	992.2	0	0.000	0.0
20100219 18:10	0.4	-1.7	0.4	92	-0.7	6	13	270	0.0	992.4	0	0.000	0.0
20100219 18:15	0.5	-1.6	0.5	92	-0.6	6	14	270	0.0	992.5	0	0.000	0.0
20100219 18:20	0.5	-1.6	0.5	92	-0.6	6	11	270	0.0	992.6	0	0.000	0.0
20100219 18:25	0.5	0.5	0.5	92	-0.6	5	10	270	0.0	992.7	0	0.000	0.0
20100219 18:30	0.6	0.6	0.6	92	-0.6	5	10	270	0.0	992.8	0	0.000	0.0
20100219 18:35	0.6	-1.5	0.6	92	-0.6	6	10	270	0.0	992.8	0	0.000	0.0
20100219 18:40	0.6	-1.5	0.6	92	-0.6	6	11	270	0.2	992.9	0	0.000	0.0
20100219 18:45	0.6	-1.5	0.6	92	-0.6	6	10	270	0.0	993.0	0	0.000	0.0
20100219 18:50	0.6	-2.1	0.6	92	-0.6	8	16	270	0.0	993.1	0	0.000	0.0
20100219 18:55	0.6	-2.1	0.6	92	-0.6	8	14	270	0.0	993.2	0	0.000	0.0
20100219 19:00	0.5	-2.1	0.5	92	-0.6	8	14	270	0.0	993.3	0	0.000	0.0
20100219 19:05	0.5	-2.1	0.5	92	-0.6	8	14	270	0.0	993.5	0	0.000	0.0
20100219 19:10	0.4	-1.7	0.4	92	-0.7	6	13	270	0.0	993.5	0	0.000	0.0
20100219 19:15	0.4	-1.7	0.4	92	-0.7	6	11	270	0.0	993.7	0	0.000	0.0
20100219 19:20	0.4	-1.7	0.4	92	-0.7	6	11	270	0.2	993.7	0	0.000	0.0
20100219 19:25	0.4	-2.3	0.4	92	-0.8	8	14	248	0.0	993.8	0	0.000	0.0
20100219 19:30	0.3	-2.8	0.3	93	-0.7	10	16	270	0.0	994.0	0	0.000	0.0
20100219 19:35	0.3	-2.8	0.3	93	-0.7	10	18	270	0.2	994.0	0	0.000	0.0
20100219 19:40	0.3	-2.4	0.3	93	-0.7	8	14	270	0.0	994.1	0	0.000	0.0
20100219 19:45	0.2	-2.5	0.2	93	-0.8	8	16	270	0.0	994.3	0	0.000	0.0
20100219 19:50	0.2	-2.5	0.2	93	-0.8	8	18	270	0.2	994.4	0	0.000	0.0
20100219 19:55	0.1	-3.1	0.1	93	-0.9	10	19	248	0.0	994.5	0	0.000	0.0
20100219 20:00	0.2	-2.5	0.2	93	-0.8	8	13	270	0.2	994.6	0	0.000	0.0
20100219 20:05	0.1	-2.6	0.1	93	-0.9	8	16	270	0.0	994.6	0	0.000	0.0
20100219 20:10	0.1	-2.7	0.1	93	-0.9	8	18	248	0.2	994.6	0	0.000	0.0
20100219 20:15	0.1	-2.7	0.1	93	-0.9	8	16	248	0.0	994.8	0	0.000	0.0
20100219 20:20	0.1	-3.1	0.1	93	-0.9	10	14	270	0.2	994.9	0	0.000	0.0
20100219 20:25	0.1	-2.7	0.1	93	-0.9	8	16	248	0.0	994.9	0	0.000	0.0
20100219 20:30	0.1	-3.5	0.1	93	-0.9	11	18	248	0.0	995.1	0	0.000	0.0
20100219 20:35	0.1	-3.1	0.1	93	-0.9	10	18	270	0.2	995.3	0	0.000	0.0
20100219 20:40	0.1	-3.5	0.1	93	-0.9	11	16	270	0.0	995.4	0	0.000	0.0
20100219 20:45	0.1	-3.5	0.1	93	-0.9	11	19	248	0.2	995.4	0	0.000	0.0
20100219 20:50	0.0	-3.6	0.0	93	-1.0	11	18	270	0.0	995.6	0	0.000	0.0
20100219 20:55	0.0	-3.6	0.0	93	-1.0	11	21	270	0.2	995.8	0	0.000	0.0
20100219 21:00	0.0	-4.0	0.0	93	-1.0	13	21	270	0.0	995.9	0	0.000	0.0
20100219 21:05	0.1	-3.5	0.1	93	-0.9	11	19	270	0.2	996.0	0	0.000	0.0
20100219 21:10	0.1	-3.5	0.1	94	-0.8	11	23	270	0.0	996.0	0	0.000	0.0
20100219 21:15	0.1	-3.9	0.1	94	-0.8	13	21	270	0.0	996.2	0	0.000	0.0
20100219 21:20	0.1	-3.5	0.1	94	-0.8	11	21	270	0.2	996.3	0	0.000	0.0
20100219 21:25	0.1	-3.9	0.1	93	-0.9	13	23	248	0.0	996.4	0	0.000	0.0
20100219 21:30	0.1	-3.1	0.1	93	-0.9	10	19	270	0.0	996.5	0	0.000	0.0
20100219 21:35	0.1	-3.5	0.1	93	-0.9	11	19	270	0.0	996.6	0	0.000	0.0
20100219 21:40	0.1	-3.1	0.1	94	-0.8	10	21	270	0.2	996.7	0	0.000	0.0
20100219 21:45	0.1	-3.5	0.1	94	-0.7	11	21	270	0.0	996.9	0	0.000	0.0
20100219 21:50	0.2	-3.8	0.2	94	-0.7	13	21	292	0.0	996.9	0	0.000	0.0
20100219 21:55	0.2	-3.8	0.2	94	-0.7	13	21	270	0.0	997.0	0	0.000	0.0
20100219 22:00	0.2	-4.1	0.2	94	-0.7	14	26	270	0.0	997.1	0	0.000	0.0
20100219 22:05	0.2	-3.7	0.2	94	-0.6	13	23	270	0.0	997.1	0	0.000	0.0
20100219 22:10	0.2	-4.0	0.2	94	-0.6	14	24	270	0.0	997.2	0	0.000	0.0
20100219 22:15	0.2	-4.0	0.2	93	-0.8	14	26	270	0.0	997.2	0	0.000	0.0
20100219 22:20	0.2	-3.3	0.2	93	-0.8	11	21	248	0.0	997.2	0	0.000	0.0
20100219 22:25	0.2	-3.7	0.2	93	-0.8	13	19	270	0.0	997.4	0	0.000	0.0
20100219 22:30	0.2	-4.0	0.2	93	-0.8	14	24	270	0.0	997.4	0	0.000	0.0
20100219 22:35	0.3	-3.6	0.3	93	-0.7	13	18	270	0.0	997.4	0	0.000	0.0
20100219 22:40	0.3	-4.0	0.3	94	-0.6	14	24	270	0.0	997.5	0	0.000	0.0
20100219 22:45	0.3	-4.0	0.3	94	-0.6	14	26	270	0.0	997.6	0	0.000	0.0
20100219 22:50	0.3	-3.9	0.3	94	-0.5	14	24	270	0.0	997.7	0	0.000	0.0
20100219 22:55	0.3	-3.6	0.3	94	-0.5	13	23	270	0.0	997.8	0	0.000	0.0
20100219 23:00	0.3	-3.6	0.3	93	-0.7	13	27	270	0.0	997.8	0	0.000	0.0
20100219 23:05	0.3	-3.6	0.3	93	-0.7	13	27	270	0.0	997.7	0	0.000	0.0
20100219 23:10	0.3	-3.2	0.3	93	-0.7	11	19	270	0.0	997.8	0	0.000	0.0
20100219 23:15	0.4	-3.1	0.4	93	-0.6	11	21	270	0.0	997.9	0	0.000	0.0
20100219 23:20	0.4	-3.5	0.4	93	-0.6	13	21	292	0.0	997.8	0	0.000	0.0
20100219 23:25	0.4	-3.5	0.4	93	-0.6	13	26	292	0.0	998.0	0	0.000	0.0
20100219 23:30	0.4	-3.5	0.4	93	-0.6	13	21	270	0.0	998.0	0	0.000	0.0
20100219 23:35	0.4	-2.7	0.4	93	-0.6	10	19	270	0.0	998.1	0	0.000	0.0
20100219 23:40	0.4	-4.0	0.4	93	-0.6	16	23	292	0.0	998.2	0	0.000	0.0
20100219 23:45	0.4	-4.4	0.4	93	-0.6	18	26	270	0.0	998.1	0	0.000	0.0
20100219 23:50	0.4	-4.1	0.4	93	-0.6	16	27	270	0.0	998.2	0	0.000	0.0
20100219 23:55	0.3	-4.5	0.3	93	-0.7	18	26	270	0.0	998.5	0	0.000	0.0



Please note the license to use and transfer of this data:
http://creativecommons.org/licenses/by-nc-sa/3.0/deed.en

Bitte beachten sie die Lizenz zur Verwertung und Weitergabe der Daten:
http://creativecommons.org/licenses/by-nc-sa/3.0/deed.de

zurück zur Übersicht der Archivdaten (Monats und Tagesdaten)

Cookies helfen bei der Bereitstellung von Inhalten. Durch die Nutzung dieser Seiten erklärst du dich damit einverstanden, dass Cookies auf deinem Rechner gespeichert werden. Weitere Information